Carlisle, SC

3:17 AM EST on December 22, 2014 (GMT -0500)
Corinth Community | Change Station
CLOSE
Current Station
Personal Weather Station
Location: Gaffney, SC
Elevation: 669 ft
Nearby Weather Stations

Elev 669 ft 34.98 °N, 81.61 °W | Updated 5 seconds ago

Rain
Rain
42.3 °F
Feels Like 42 °F
N
0.0
Wind Variable Wind from South
Gusts 1.6 mph

Today
High -- | Low -- °F
--% Chance of Precip.
Yesterday
High -- | Low -- °F
Precip. -- in
7:30 AM 5:20 PM
New Moon, 0% visible
Pressure 30.10 in
Visibility 4.0 miles
Clouds Overcast 300 ft
Windchill 42 °F
Dew Point 42 °F
Humidity 98%
Rainfall 0.02 in
Snow Depth Not available.
UV 0.0 out of 12
Pollen 1.20 out of 12
Air Quality Not available.
Flu Activity Not available.
METAR KLUX 220815Z AUTO 04008KT 4SM -RA OVC003 06/06 A3010 RMK AO2

More Conditions Fewer Conditions

Pressure 30.10 in
Visibility 4.0 miles
Clouds Overcast 300 ft
Windchill 42 °F
Dew Point 42 °F
Humidity 98%
Rainfall 0.02 in
Snow Depth Not available.
UV 0.0 out of 12
Pollen 1.20 out of 12
Air Quality Not available.
Flu Activity Not available.
METAR KLUX 220815Z AUTO 04008KT 4SM -RA OVC003 06/06 A3010 RMK AO2

More Conditions Fewer Conditions

10-Day Weather Forecast

Almanac

Astronomy

Dec. 22, 2014 Rise Set
Actual Time
Civil Twilight
Nautical Twilight
Astronomical Twilight
Moon
Length of Visible Light
Length of Day
Tomorrow will be .
, % of the Moon is Illuminated

Today's Extremes

State Highs State Lows

Community

WunderPhotos

Upload Photos

1,779,564 photos uploaded!

WunderBlogs® & News

Nearby

Air Quality

  Air Quality AQ Index Pollutant
Not available.

Snow Depth

Station Depth Elevation

Earthquake Activity

City Distance Mag. Time & Date
Minimum magnitude displayed is 2.5.

Coastal Water Temperatures

Place Temperature

Nearby Weather Stations